sensor_id;sensor_type;location;lat;lon;timestamp;P1;durP1;ratioP1;P2;durP2;ratioP2
50769;SDS011;36740;48.698;11.472;2022-09-14T00:04:23;9.07;;;5.97;;
50769;SDS011;36740;48.698;11.472;2022-09-14T00:07:17;7.72;;;6.05;;
50769;SDS011;36740;48.698;11.472;2022-09-14T00:10:12;11.43;;;7.53;;
50769;SDS011;36740;48.698;11.472;2022-09-14T00:13:07;11.10;;;7.47;;
50769;SDS011;36740;48.698;11.472;2022-09-14T00:16:13;12.05;;;7.13;;
50769;SDS011;36740;48.698;11.472;2022-09-14T00:19:03;11.60;;;7.20;;
50769;SDS011;36740;48.698;11.472;2022-09-14T00:21:57;12.10;;;7.82;;
50769;SDS011;36740;48.698;11.472;2022-09-14T00:24:53;11.05;;;5.88;;
50769;SDS011;36740;48.698;11.472;2022-09-14T00:27:41;11.48;;;7.55;;
50769;SDS011;36740;48.698;11.472;2022-09-14T00:30:30;10.32;;;7.85;;
50769;SDS011;36740;48.698;11.472;2022-09-14T00:33:27;14.10;;;8.18;;
50769;SDS011;36740;48.698;11.472;2022-09-14T00:36:22;13.88;;;8.20;;
50769;SDS011;36740;48.698;11.472;2022-09-14T00:45:49;16.75;;;6.57;;
50769;SDS011;36740;48.698;11.472;2022-09-14T00:48:44;10.07;;;7.03;;
50769;SDS011;36740;48.698;11.472;2022-09-14T00:51:45;10.15;;;6.57;;
50769;SDS011;36740;48.698;11.472;2022-09-14T00:54:42;10.88;;;7.60;;
50769;SDS011;36740;48.698;11.472;2022-09-14T00:57:47;9.73;;;6.72;;
50769;SDS011;36740;48.698;11.472;2022-09-14T01:00:49;11.70;;;7.30;;
50769;SDS011;36740;48.698;11.472;2022-09-14T01:03:49;9.15;;;5.85;;
50769;SDS011;36740;48.698;11.472;2022-09-14T01:06:55;28.48;;;9.23;;
50769;SDS011;36740;48.698;11.472;2022-09-14T01:15:49;8.48;;;5.90;;
50769;SDS011;36740;48.698;11.472;2022-09-14T01:18:56;10.88;;;7.25;;
50769;SDS011;36740;48.698;11.472;2022-09-14T01:21:46;10.90;;;6.75;;
50769;SDS011;36740;48.698;11.472;2022-09-14T01:27:49;10.88;;;7.25;;
50769;SDS011;36740;48.698;11.472;2022-09-14T01:30:43;13.52;;;8.35;;
50769;SDS011;36740;48.698;11.472;2022-09-14T01:37:15;12.20;;;7.18;;
50769;SDS011;36740;48.698;11.472;2022-09-14T01:49:46;9.85;;;6.90;;
50769;SDS011;36740;48.698;11.472;2022-09-14T01:52:37;10.23;;;6.60;;
50769;SDS011;36740;48.698;11.472;2022-09-14T01:59:16;11.05;;;6.85;;
50769;SDS011;36740;48.698;11.472;2022-09-14T02:02:26;11.95;;;7.30;;
50769;SDS011;36740;48.698;11.472;2022-09-14T02:08:29;7.68;;;5.55;;
50769;SDS011;36740;48.698;11.472;2022-09-14T02:11:15;8.10;;;5.88;;
50769;SDS011;36740;48.698;11.472;2022-09-14T02:14:04;8.50;;;6.22;;
50769;SDS011;36740;48.698;11.472;2022-09-14T02:16:53;9.23;;;6.15;;
50769;SDS011;36740;48.698;11.472;2022-09-14T02:19:44;11.25;;;6.72;;
50769;SDS011;36740;48.698;11.472;2022-09-14T02:22:40;9.90;;;6.20;;
50769;SDS011;36740;48.698;11.472;2022-09-14T02:25:25;13.93;;;6.57;;
50769;SDS011;36740;48.698;11.472;2022-09-14T02:28:30;8.93;;;7.40;;
50769;SDS011;36740;48.698;11.472;2022-09-14T02:31:23;12.70;;;8.48;;
50769;SDS011;36740;48.698;11.472;2022-09-14T02:49:43;9.27;;;6.63;;
50769;SDS011;36740;48.698;11.472;2022-09-14T02:52:38;8.32;;;5.75;;
50769;SDS011;36740;48.698;11.472;2022-09-14T02:58:50;10.82;;;7.25;;
50769;SDS011;36740;48.698;11.472;2022-09-14T03:01:45;9.70;;;5.72;;
50769;SDS011;36740;48.698;11.472;2022-09-14T03:04:33;12.77;;;7.60;;
50769;SDS011;36740;48.698;11.472;2022-09-14T03:07:19;11.02;;;6.75;;
50769;SDS011;36740;48.698;11.472;2022-09-14T03:10:09;11.77;;;7.45;;
50769;SDS011;36740;48.698;11.472;2022-09-14T03:13:18;10.57;;;5.50;;
50769;SDS011;36740;48.698;11.472;2022-09-14T03:19:20;10.35;;;7.03;;
50769;SDS011;36740;48.698;11.472;2022-09-14T03:22:30;11.52;;;5.63;;
50769;SDS011;36740;48.698;11.472;2022-09-14T03:32:48;10.40;;;5.85;;
50769;SDS011;36740;48.698;11.472;2022-09-14T03:35:34;11.18;;;7.53;;
50769;SDS011;36740;48.698;11.472;2022-09-14T03:41:49;12.48;;;7.78;;
50769;SDS011;36740;48.698;11.472;2022-09-14T03:44:37;15.20;;;8.02;;
50769;SDS011;36740;48.698;11.472;2022-09-14T03:47:40;11.15;;;7.30;;
50769;SDS011;36740;48.698;11.472;2022-09-14T03:50:38;15.77;;;7.45;;
50769;SDS011;36740;48.698;11.472;2022-09-14T03:53:26;11.40;;;8.10;;
50769;SDS011;36740;48.698;11.472;2022-09-14T03:56:27;11.65;;;7.10;;
50769;SDS011;36740;48.698;11.472;2022-09-14T04:02:47;13.02;;;7.15;;
50769;SDS011;36740;48.698;11.472;2022-09-14T04:05:28;12.53;;;8.87;;
50769;SDS011;36740;48.698;11.472;2022-09-14T04:08:32;12.32;;;7.05;;
50769;SDS011;36740;48.698;11.472;2022-09-14T04:11:22;13.20;;;8.48;;
50769;SDS011;36740;48.698;11.472;2022-09-14T04:14:15;11.63;;;7.47;;
50769;SDS011;36740;48.698;11.472;2022-09-14T04:17:09;11.05;;;7.95;;
50769;SDS011;36740;48.698;11.472;2022-09-14T04:20:05;14.82;;;9.32;;
50769;SDS011;36740;48.698;11.472;2022-09-14T04:23:10;15.50;;;8.40;;
50769;SDS011;36740;48.698;11.472;2022-09-14T04:25:56;14.00;;;9.55;;
50769;SDS011;36740;48.698;11.472;2022-09-14T04:29:04;14.38;;;9.20;;
50769;SDS011;36740;48.698;11.472;2022-09-14T04:31:50;21.13;;;9.07;;
50769;SDS011;36740;48.698;11.472;2022-09-14T04:34:47;14.38;;;9.40;;
50769;SDS011;36740;48.698;11.472;2022-09-14T04:40:58;19.67;;;12.55;;
50769;SDS011;36740;48.698;11.472;2022-09-14T04:43:50;14.57;;;8.98;;
50769;SDS011;36740;48.698;11.472;2022-09-14T04:50:10;13.18;;;8.90;;
50769;SDS011;36740;48.698;11.472;2022-09-14T04:56:52;16.13;;;10.98;;
50769;SDS011;36740;48.698;11.472;2022-09-14T05:00:00;18.63;;;10.95;;
50769;SDS011;36740;48.698;11.472;2022-09-14T05:02:57;20.17;;;11.43;;
50769;SDS011;36740;48.698;11.472;2022-09-14T05:09:37;14.35;;;10.88;;
50769;SDS011;36740;48.698;11.472;2022-09-14T05:12:36;12.20;;;10.13;;
50769;SDS011;36740;48.698;11.472;2022-09-14T05:15:24;14.73;;;11.43;;
50769;SDS011;36740;48.698;11.472;2022-09-14T05:18:29;17.75;;;10.65;;
50769;SDS011;36740;48.698;11.472;2022-09-14T05:21:17;16.00;;;10.93;;
50769;SDS011;36740;48.698;11.472;2022-09-14T05:24:11;12.23;;;9.02;;
50769;SDS011;36740;48.698;11.472;2022-09-14T05:26:59;17.08;;;10.40;;
50769;SDS011;36740;48.698;11.472;2022-09-14T05:30:03;12.73;;;7.82;;
50769;SDS011;36740;48.698;11.472;2022-09-14T05:36:19;14.73;;;9.68;;
50769;SDS011;36740;48.698;11.472;2022-09-14T05:39:05;15.32;;;10.60;;
50769;SDS011;36740;48.698;11.472;2022-09-14T05:42:20;14.05;;;9.18;;
50769;SDS011;36740;48.698;11.472;2022-09-14T05:45:06;19.35;;;11.18;;
50769;SDS011;36740;48.698;11.472;2022-09-14T05:47:52;12.45;;;7.30;;
50769;SDS011;36740;48.698;11.472;2022-09-14T05:50:43;11.85;;;8.45;;
50769;SDS011;36740;48.698;11.472;2022-09-14T05:56:44;20.48;;;11.52;;
50769;SDS011;36740;48.698;11.472;2022-09-14T05:59:30;11.70;;;7.80;;
50769;SDS011;36740;48.698;11.472;2022-09-14T06:02:22;13.45;;;7.35;;
50769;SDS011;36740;48.698;11.472;2022-09-14T06:05:23;12.57;;;8.10;;
50769;SDS011;36740;48.698;11.472;2022-09-14T06:08:09;13.15;;;8.07;;
50769;SDS011;36740;48.698;11.472;2022-09-14T06:10:55;11.50;;;7.28;;
50769;SDS011;36740;48.698;11.472;2022-09-14T06:13:41;13.52;;;9.15;;
50769;SDS011;36740;48.698;11.472;2022-09-14T06:16:30;11.80;;;8.35;;
50769;SDS011;36740;48.698;11.472;2022-09-14T06:22:41;11.70;;;7.47;;
50769;SDS011;36740;48.698;11.472;2022-09-14T06:25:26;13.63;;;8.43;;
50769;SDS011;36740;48.698;11.472;2022-09-14T06:28:12;10.52;;;7.53;;
50769;SDS011;36740;48.698;11.472;2022-09-14T06:30:58;10.35;;;7.20;;
50769;SDS011;36740;48.698;11.472;2022-09-14T06:33:44;11.93;;;6.75;;
50769;SDS011;36740;48.698;11.472;2022-09-14T06:36:30;11.00;;;7.40;;
50769;SDS011;36740;48.698;11.472;2022-09-14T06:39:16;13.68;;;8.18;;
50769;SDS011;36740;48.698;11.472;2022-09-14T06:42:01;20.25;;;9.32;;
50769;SDS011;36740;48.698;11.472;2022-09-14T06:44:47;11.55;;;7.68;;
50769;SDS011;36740;48.698;11.472;2022-09-14T06:47:51;12.27;;;9.18;;
50769;SDS011;36740;48.698;11.472;2022-09-14T06:50:37;10.35;;;7.47;;
50769;SDS011;36740;48.698;11.472;2022-09-14T06:53:23;12.57;;;8.57;;
50769;SDS011;36740;48.698;11.472;2022-09-14T06:56:08;13.63;;;9.35;;
50769;SDS011;36740;48.698;11.472;2022-09-14T06:59:13;11.32;;;8.15;;
50769;SDS011;36740;48.698;11.472;2022-09-14T07:02:13;14.35;;;8.68;;
50769;SDS011;36740;48.698;11.472;2022-09-14T07:05:11;16.00;;;8.17;;
50769;SDS011;36740;48.698;11.472;2022-09-14T07:07:58;14.57;;;9.30;;
50769;SDS011;36740;48.698;11.472;2022-09-14T07:10:44;13.00;;;9.43;;
50769;SDS011;36740;48.698;11.472;2022-09-14T07:13:48;12.50;;;8.43;;
50769;SDS011;36740;48.698;11.472;2022-09-14T07:16:34;13.50;;;9.75;;
50769;SDS011;36740;48.698;11.472;2022-09-14T07:19:20;14.32;;;8.18;;
50769;SDS011;36740;48.698;11.472;2022-09-14T07:22:06;20.45;;;10.35;;
50769;SDS011;36740;48.698;11.472;2022-09-14T07:24:52;9.63;;;8.02;;
50769;SDS011;36740;48.698;11.472;2022-09-14T07:27:37;12.75;;;8.63;;
50769;SDS011;36740;48.698;11.472;2022-09-14T07:30:23;10.88;;;7.38;;
50769;SDS011;36740;48.698;11.472;2022-09-14T07:33:11;13.35;;;8.07;;
50769;SDS011;36740;48.698;11.472;2022-09-14T07:36:07;10.15;;;7.20;;
50769;SDS011;36740;48.698;11.472;2022-09-14T07:38:54;14.73;;;7.18;;
50769;SDS011;36740;48.698;11.472;2022-09-14T07:45:04;9.93;;;7.93;;
50769;SDS011;36740;48.698;11.472;2022-09-14T07:47:50;11.70;;;7.95;;
50769;SDS011;36740;48.698;11.472;2022-09-14T07:50:36;13.00;;;8.25;;
50769;SDS011;36740;48.698;11.472;2022-09-14T07:53:21;17.35;;;9.07;;
50769;SDS011;36740;48.698;11.472;2022-09-14T07:56:08;9.25;;;6.95;;
50769;SDS011;36740;48.698;11.472;2022-09-14T07:59:14;11.50;;;7.95;;
50769;SDS011;36740;48.698;11.472;2022-09-14T08:02:00;13.00;;;7.40;;
50769;SDS011;36740;48.698;11.472;2022-09-14T08:04:46;12.25;;;8.38;;
50769;SDS011;36740;48.698;11.472;2022-09-14T08:07:32;10.98;;;7.47;;
50769;SDS011;36740;48.698;11.472;2022-09-14T08:10:17;11.32;;;6.97;;
50769;SDS011;36740;48.698;11.472;2022-09-14T08:16:25;10.10;;;5.35;;
50769;SDS011;36740;48.698;11.472;2022-09-14T08:19:13;7.93;;;5.55;;
50769;SDS011;36740;48.698;11.472;2022-09-14T08:22:19;9.00;;;5.53;;
50769;SDS011;36740;48.698;11.472;2022-09-14T08:25:04;9.93;;;4.88;;
50769;SDS011;36740;48.698;11.472;2022-09-14T08:27:50;13.18;;;5.00;;
50769;SDS011;36740;48.698;11.472;2022-09-14T08:30:36;9.70;;;5.82;;
50769;SDS011;36740;48.698;11.472;2022-09-14T08:33:21;4.20;;;3.78;;
50769;SDS011;36740;48.698;11.472;2022-09-14T08:36:08;6.15;;;3.97;;
50769;SDS011;36740;48.698;11.472;2022-09-14T08:38:53;9.90;;;4.22;;
50769;SDS011;36740;48.698;11.472;2022-09-14T08:41:43;6.50;;;4.20;;
50769;SDS011;36740;48.698;11.472;2022-09-14T08:47:31;7.70;;;3.90;;
50769;SDS011;36740;48.698;11.472;2022-09-14T08:50:19;6.60;;;4.25;;
50769;SDS011;36740;48.698;11.472;2022-09-14T08:53:06;14.30;;;6.38;;
50769;SDS011;36740;48.698;11.472;2022-09-14T08:55:53;6.97;;;3.72;;
50769;SDS011;36740;48.698;11.472;2022-09-14T09:08:16;4.05;;;2.30;;
50769;SDS011;36740;48.698;11.472;2022-09-14T09:11:05;3.72;;;2.45;;
50769;SDS011;36740;48.698;11.472;2022-09-14T09:13:55;4.53;;;2.60;;
50769;SDS011;36740;48.698;11.472;2022-09-14T09:16:41;4.95;;;2.95;;
50769;SDS011;36740;48.698;11.472;2022-09-14T09:19:29;5.65;;;2.88;;
50769;SDS011;36740;48.698;11.472;2022-09-14T09:22:24;3.80;;;2.60;;
50769;SDS011;36740;48.698;11.472;2022-09-14T09:25:14;4.72;;;3.35;;
50769;SDS011;36740;48.698;11.472;2022-09-14T09:28:01;5.60;;;3.38;;
50769;SDS011;36740;48.698;11.472;2022-09-14T09:30:54;4.00;;;2.17;;
50769;SDS011;36740;48.698;11.472;2022-09-14T09:33:40;3.22;;;2.25;;
50769;SDS011;36740;48.698;11.472;2022-09-14T09:36:29;4.72;;;2.50;;
50769;SDS011;36740;48.698;11.472;2022-09-14T09:39:17;4.22;;;2.97;;
50769;SDS011;36740;48.698;11.472;2022-09-14T09:42:06;6.63;;;3.25;;
50769;SDS011;36740;48.698;11.472;2022-09-14T09:47:53;3.95;;;2.30;;
50769;SDS011;36740;48.698;11.472;2022-09-14T09:59:40;4.32;;;2.55;;
50769;SDS011;36740;48.698;11.472;2022-09-14T10:02:33;3.08;;;2.55;;
50769;SDS011;36740;48.698;11.472;2022-09-14T10:05:28;4.80;;;2.80;;
50769;SDS011;36740;48.698;11.472;2022-09-14T10:08:27;4.28;;;2.72;;
50769;SDS011;36740;48.698;11.472;2022-09-14T10:14:25;6.13;;;2.55;;
50769;SDS011;36740;48.698;11.472;2022-09-14T10:17:22;3.63;;;2.20;;
50769;SDS011;36740;48.698;11.472;2022-09-14T10:20:18;3.50;;;2.03;;
50769;SDS011;36740;48.698;11.472;2022-09-14T10:29:16;2.55;;;1.80;;
50769;SDS011;36740;48.698;11.472;2022-09-14T10:32:22;6.45;;;2.80;;
50769;SDS011;36740;48.698;11.472;2022-09-14T10:35:13;3.13;;;2.13;;
50769;SDS011;36740;48.698;11.472;2022-09-14T10:38:13;3.15;;;2.60;;
50769;SDS011;36740;48.698;11.472;2022-09-14T10:41:23;4.05;;;2.40;;
50769;SDS011;36740;48.698;11.472;2022-09-14T10:47:07;9.07;;;2.85;;
50769;SDS011;36740;48.698;11.472;2022-09-14T10:50:11;3.10;;;1.95;;
50769;SDS011;36740;48.698;11.472;2022-09-14T11:07:41;3.70;;;2.22;;
50769;SDS011;36740;48.698;11.472;2022-09-14T11:13:42;4.30;;;2.50;;
50769;SDS011;36740;48.698;11.472;2022-09-14T11:22:49;4.88;;;3.40;;
50769;SDS011;36740;48.698;11.472;2022-09-14T11:28:55;3.10;;;2.25;;
50769;SDS011;36740;48.698;11.472;2022-09-14T11:31:52;3.92;;;2.47;;
50769;SDS011;36740;48.698;11.472;2022-09-14T11:37:54;3.70;;;2.50;;
50769;SDS011;36740;48.698;11.472;2022-09-14T11:40:50;4.63;;;1.48;;
50769;SDS011;36740;48.698;11.472;2022-09-14T11:46:33;2.93;;;2.30;;
50769;SDS011;36740;48.698;11.472;2022-09-14T11:52:22;4.43;;;2.80;;
50769;SDS011;36740;48.698;11.472;2022-09-14T11:55:08;3.85;;;2.13;;
50769;SDS011;36740;48.698;11.472;2022-09-14T11:57:55;6.13;;;2.80;;
50769;SDS011;36740;48.698;11.472;2022-09-14T12:00:45;2.67;;;1.98;;
50769;SDS011;36740;48.698;11.472;2022-09-14T12:18:23;7.70;;;2.33;;
50769;SDS011;36740;48.698;11.472;2022-09-14T12:24:00;6.55;;;2.58;;
50769;SDS011;36740;48.698;11.472;2022-09-14T12:27:12;4.10;;;2.13;;
50769;SDS011;36740;48.698;11.472;2022-09-14T12:29:58;8.93;;;2.22;;
50769;SDS011;36740;48.698;11.472;2022-09-14T12:32:46;10.02;;;3.05;;
50769;SDS011;36740;48.698;11.472;2022-09-14T12:47:53;2.50;;;1.90;;
50769;SDS011;36740;48.698;11.472;2022-09-14T12:50:20;4.85;;;2.33;;
50769;SDS011;36740;48.698;11.472;2022-09-14T12:53:17;5.93;;;2.30;;
50769;SDS011;36740;48.698;11.472;2022-09-14T12:57:16;3.28;;;2.15;;
50769;SDS011;36740;48.698;11.472;2022-09-14T13:03:13;5.35;;;2.75;;
50769;SDS011;36740;48.698;11.472;2022-09-14T13:06:03;4.30;;;2.75;;
50769;SDS011;36740;48.698;11.472;2022-09-14T13:08:53;7.93;;;2.08;;
50769;SDS011;36740;48.698;11.472;2022-09-14T13:14:38;2.78;;;1.83;;
50769;SDS011;36740;48.698;11.472;2022-09-14T13:17:32;3.65;;;1.85;;
50769;SDS011;36740;48.698;11.472;2022-09-14T13:20:20;7.60;;;2.60;;
50769;SDS011;36740;48.698;11.472;2022-09-14T13:23:17;5.07;;;1.63;;
50769;SDS011;36740;48.698;11.472;2022-09-14T13:26:51;8.68;;;3.25;;
50769;SDS011;36740;48.698;11.472;2022-09-14T13:29:15;5.50;;;1.88;;
50769;SDS011;36740;48.698;11.472;2022-09-14T13:41:58;6.90;;;3.47;;
50769;SDS011;36740;48.698;11.472;2022-09-14T13:48:10;4.38;;;2.45;;
50769;SDS011;36740;48.698;11.472;2022-09-14T13:50:57;6.03;;;2.67;;
50769;SDS011;36740;48.698;11.472;2022-09-14T13:53:56;7.88;;;2.58;;
50769;SDS011;36740;48.698;11.472;2022-09-14T13:56:42;6.70;;;2.20;;
50769;SDS011;36740;48.698;11.472;2022-09-14T13:59:33;3.22;;;2.35;;
50769;SDS011;36740;48.698;11.472;2022-09-14T14:02:24;2.50;;;1.65;;
50769;SDS011;36740;48.698;11.472;2022-09-14T14:08:36;2.53;;;1.92;;
50769;SDS011;36740;48.698;11.472;2022-09-14T14:11:37;4.90;;;3.10;;
50769;SDS011;36740;48.698;11.472;2022-09-14T14:14:29;5.78;;;2.40;;
50769;SDS011;36740;48.698;11.472;2022-09-14T14:23:35;6.53;;;2.47;;
50769;SDS011;36740;48.698;11.472;2022-09-14T14:26:31;7.20;;;2.85;;
50769;SDS011;36740;48.698;11.472;2022-09-14T14:29:40;4.50;;;2.83;;
50769;SDS011;36740;48.698;11.472;2022-09-14T14:32:26;5.32;;;2.88;;
50769;SDS011;36740;48.698;11.472;2022-09-14T14:35:17;4.05;;;2.90;;
50769;SDS011;36740;48.698;11.472;2022-09-14T14:38:23;5.53;;;2.47;;
50769;SDS011;36740;48.698;11.472;2022-09-14T14:41:16;7.43;;;3.13;;
50769;SDS011;36740;48.698;11.472;2022-09-14T14:44:03;4.70;;;2.85;;
50769;SDS011;36740;48.698;11.472;2022-09-14T14:46:49;9.52;;;2.90;;
50769;SDS011;36740;48.698;11.472;2022-09-14T14:49:42;5.57;;;2.97;;
50769;SDS011;36740;48.698;11.472;2022-09-14T14:52:36;9.45;;;3.05;;
50769;SDS011;36740;48.698;11.472;2022-09-14T14:55:32;8.38;;;3.15;;
50769;SDS011;36740;48.698;11.472;2022-09-14T14:58:28;7.22;;;3.17;;
50769;SDS011;36740;48.698;11.472;2022-09-14T15:01:14;6.32;;;4.32;;
50769;SDS011;36740;48.698;11.472;2022-09-14T15:04:00;12.05;;;4.40;;
50769;SDS011;36740;48.698;11.472;2022-09-14T15:06:51;5.68;;;2.83;;
50769;SDS011;36740;48.698;11.472;2022-09-14T15:09:55;6.60;;;2.33;;
50769;SDS011;36740;48.698;11.472;2022-09-14T15:12:47;4.68;;;3.20;;
50769;SDS011;36740;48.698;11.472;2022-09-14T15:15:50;3.53;;;2.45;;
50769;SDS011;36740;48.698;11.472;2022-09-14T15:18:36;4.25;;;1.98;;
50769;SDS011;36740;48.698;11.472;2022-09-14T15:21:24;3.70;;;2.40;;
50769;SDS011;36740;48.698;11.472;2022-09-14T15:24:10;6.13;;;3.13;;
50769;SDS011;36740;48.698;11.472;2022-09-14T15:27:01;5.00;;;2.55;;
50769;SDS011;36740;48.698;11.472;2022-09-14T15:29:49;3.40;;;2.63;;
50769;SDS011;36740;48.698;11.472;2022-09-14T15:32:35;5.55;;;2.47;;
50769;SDS011;36740;48.698;11.472;2022-09-14T15:35:21;4.80;;;2.05;;
50769;SDS011;36740;48.698;11.472;2022-09-14T15:38:09;3.42;;;1.90;;
50769;SDS011;36740;48.698;11.472;2022-09-14T15:40:57;4.07;;;1.65;;
50769;SDS011;36740;48.698;11.472;2022-09-14T15:43:47;2.22;;;1.45;;
50769;SDS011;36740;48.698;11.472;2022-09-14T16:07:21;1.88;;;1.65;;
50769;SDS011;36740;48.698;11.472;2022-09-14T16:20:46;1.88;;;1.48;;
50769;SDS011;36740;48.698;11.472;2022-09-14T16:23:53;4.40;;;2.95;;
50769;SDS011;36740;48.698;11.472;2022-09-14T16:26:46;3.20;;;1.95;;
50769;SDS011;36740;48.698;11.472;2022-09-14T16:33:08;6.15;;;2.60;;
50769;SDS011;36740;48.698;11.472;2022-09-14T16:36:00;3.50;;;2.75;;
50769;SDS011;36740;48.698;11.472;2022-09-14T16:42:27;10.43;;;3.63;;
50769;SDS011;36740;48.698;11.472;2022-09-14T16:45:29;4.55;;;2.67;;
50769;SDS011;36740;48.698;11.472;2022-09-14T16:48:17;10.05;;;4.45;;
50769;SDS011;36740;48.698;11.472;2022-09-14T16:51:03;5.78;;;3.20;;
50769;SDS011;36740;48.698;11.472;2022-09-14T16:53:49;4.10;;;1.90;;
50769;SDS011;36740;48.698;11.472;2022-09-14T16:56:36;4.93;;;2.00;;
50769;SDS011;36740;48.698;11.472;2022-09-14T16:59:22;10.88;;;4.35;;
50769;SDS011;36740;48.698;11.472;2022-09-14T17:02:08;7.25;;;1.95;;
50769;SDS011;36740;48.698;11.472;2022-09-14T17:04:54;4.97;;;2.65;;
50769;SDS011;36740;48.698;11.472;2022-09-14T17:07:40;6.93;;;3.58;;
50769;SDS011;36740;48.698;11.472;2022-09-14T17:10:28;3.88;;;1.95;;
50769;SDS011;36740;48.698;11.472;2022-09-14T17:13:23;6.18;;;3.10;;
50769;SDS011;36740;48.698;11.472;2022-09-14T17:16:21;3.35;;;2.45;;
50769;SDS011;36740;48.698;11.472;2022-09-14T17:19:08;4.80;;;1.85;;
50769;SDS011;36740;48.698;11.472;2022-09-14T17:21:54;3.88;;;2.17;;
50769;SDS011;36740;48.698;11.472;2022-09-14T17:24:40;5.45;;;2.63;;
50769;SDS011;36740;48.698;11.472;2022-09-14T17:27:25;3.58;;;1.73;;
50769;SDS011;36740;48.698;11.472;2022-09-14T17:30:11;4.53;;;2.75;;
50769;SDS011;36740;48.698;11.472;2022-09-14T17:32:57;1.80;;;1.33;;
50769;SDS011;36740;48.698;11.472;2022-09-14T17:35:52;4.13;;;2.25;;
50769;SDS011;36740;48.698;11.472;2022-09-14T17:38:41;3.38;;;2.13;;
50769;SDS011;36740;48.698;11.472;2022-09-14T17:41:27;2.20;;;1.75;;
50769;SDS011;36740;48.698;11.472;2022-09-14T17:44:14;2.80;;;2.00;;
50769;SDS011;36740;48.698;11.472;2022-09-14T17:47:02;1.83;;;1.67;;
50769;SDS011;36740;48.698;11.472;2022-09-14T17:50:03;9.10;;;2.65;;
50769;SDS011;36740;48.698;11.472;2022-09-14T17:53:04;3.30;;;2.03;;
50769;SDS011;36740;48.698;11.472;2022-09-14T18:48:00;7.45;;;2.33;;
50769;SDS011;36740;48.698;11.472;2022-09-14T19:19:39;8.48;;;1.60;;
50769;SDS011;36740;48.698;11.472;2022-09-14T19:22:46;1.55;;;1.35;;
50769;SDS011;36740;48.698;11.472;2022-09-14T19:25:54;3.57;;;1.60;;
50769;SDS011;36740;48.698;11.472;2022-09-14T20:01:24;3.70;;;1.52;;
50769;SDS011;36740;48.698;11.472;2022-09-14T20:04:40;2.42;;;1.92;;
50769;SDS011;36740;48.698;11.472;2022-09-14T20:21:57;4.40;;;2.42;;
50769;SDS011;36740;48.698;11.472;2022-09-14T20:34:51;1.77;;;1.50;;
50769;SDS011;36740;48.698;11.472;2022-09-14T20:37:56;2.03;;;1.27;;
50769;SDS011;36740;48.698;11.472;2022-09-14T20:44:42;2.72;;;1.50;;
50769;SDS011;36740;48.698;11.472;2022-09-14T20:57:58;6.88;;;1.85;;
50769;SDS011;36740;48.698;11.472;2022-09-14T21:17:41;2.63;;;1.85;;
50769;SDS011;36740;48.698;11.472;2022-09-14T21:20:32;2.83;;;1.90;;
50769;SDS011;36740;48.698;11.472;2022-09-14T21:23:38;4.28;;;1.50;;
50769;SDS011;36740;48.698;11.472;2022-09-14T21:26:40;2.33;;;1.42;;
50769;SDS011;36740;48.698;11.472;2022-09-14T21:32:54;4.28;;;1.92;;
50769;SDS011;36740;48.698;11.472;2022-09-14T21:36:01;3.22;;;1.60;;
50769;SDS011;36740;48.698;11.472;2022-09-14T21:38:51;7.65;;;3.72;;
50769;SDS011;36740;48.698;11.472;2022-09-14T21:41:40;5.13;;;2.20;;
50769;SDS011;36740;48.698;11.472;2022-09-14T21:44:31;3.10;;;1.65;;
50769;SDS011;36740;48.698;11.472;2022-09-14T21:47:18;3.80;;;2.13;;
50769;SDS011;36740;48.698;11.472;2022-09-14T21:50:05;3.15;;;2.05;;
50769;SDS011;36740;48.698;11.472;2022-09-14T21:52:52;3.45;;;2.90;;
50769;SDS011;36740;48.698;11.472;2022-09-14T22:15:27;10.05;;;2.08;;
50769;SDS011;36740;48.698;11.472;2022-09-14T22:18:40;3.95;;;2.30;;
50769;SDS011;36740;48.698;11.472;2022-09-14T22:21:42;2.30;;;1.55;;
50769;SDS011;36740;48.698;11.472;2022-09-14T22:42:28;3.40;;;2.25;;
50769;SDS011;36740;48.698;11.472;2022-09-14T22:45:37;6.38;;;3.05;;
50769;SDS011;36740;48.698;11.472;2022-09-14T22:52:00;5.03;;;3.03;;
50769;SDS011;36740;48.698;11.472;2022-09-14T22:58:05;7.55;;;2.90;;
50769;SDS011;36740;48.698;11.472;2022-09-14T23:07:56;9.02;;;3.25;;
50769;SDS011;36740;48.698;11.472;2022-09-14T23:11:13;5.43;;;2.95;;
50769;SDS011;36740;48.698;11.472;2022-09-14T23:14:18;7.75;;;2.55;;
50769;SDS011;36740;48.698;11.472;2022-09-14T23:17:17;10.50;;;3.20;;
50769;SDS011;36740;48.698;11.472;2022-09-14T23:20:13;9.48;;;2.28;;
50769;SDS011;36740;48.698;11.472;2022-09-14T23:23:05;8.07;;;2.85;;
50769;SDS011;36740;48.698;11.472;2022-09-14T23:26:29;6.13;;;2.45;;
50769;SDS011;36740;48.698;11.472;2022-09-14T23:29:27;10.40;;;3.55;;
50769;SDS011;36740;48.698;11.472;2022-09-14T23:39:11;5.07;;;2.67;;
50769;SDS011;36740;48.698;11.472;2022-09-14T23:42:09;3.78;;;2.53;;
50769;SDS011;36740;48.698;11.472;2022-09-14T23:45:35;1.95;;;1.75;;
50769;SDS011;36740;48.698;11.472;2022-09-14T23:58:42;4.60;;;2.65;;
